sensor_id;sensor_type;location;lat;lon;timestamp;temperature;humidity
35299;DHT22;21415;48.054;16.646;2023-03-01T00:00:47;6.40;42.60
35299;DHT22;21415;48.054;16.646;2023-03-01T00:03:13;5.70;42.40
35299;DHT22;21415;48.054;16.646;2023-03-01T00:05:46;5.50;42.30
35299;DHT22;21415;48.054;16.646;2023-03-01T00:08:13;5.40;42.40
35299;DHT22;21415;48.054;16.646;2023-03-01T00:10:39;6.50;42.80
35299;DHT22;21415;48.054;16.646;2023-03-01T00:13:04;6.10;42.70
35299;DHT22;21415;48.054;16.646;2023-03-01T00:15:31;5.60;42.40
35299;DHT22;21415;48.054;16.646;2023-03-01T00:17:59;6.20;42.60
35299;DHT22;21415;48.054;16.646;2023-03-01T00:20:27;5.40;42.40
35299;DHT22;21415;48.054;16.646;2023-03-01T00:22:56;5.30;42.60
35299;DHT22;21415;48.054;16.646;2023-03-01T00:25:24;5.50;42.60
35299;DHT22;21415;48.054;16.646;2023-03-01T00:27:50;6.10;42.80
35299;DHT22;21415;48.054;16.646;2023-03-01T00:30:16;6.00;42.90
35299;DHT22;21415;48.054;16.646;2023-03-01T00:32:42;5.30;42.40
35299;DHT22;21415;48.054;16.646;2023-03-01T00:35:08;5.60;42.50
35299;DHT22;21415;48.054;16.646;2023-03-01T00:37:36;5.50;42.50
35299;DHT22;21415;48.054;16.646;2023-03-01T00:40:08;5.90;42.90
35299;DHT22;21415;48.054;16.646;2023-03-01T00:42:40;5.30;42.60
35299;DHT22;21415;48.054;16.646;2023-03-01T00:45:09;6.30;43.10
35299;DHT22;21415;48.054;16.646;2023-03-01T00:47:37;5.20;42.70
35299;DHT22;21415;48.054;16.646;2023-03-01T00:50:04;5.60;43.00
35299;DHT22;21415;48.054;16.646;2023-03-01T00:52:30;5.20;42.80
35299;DHT22;21415;48.054;16.646;2023-03-01T00:54:56;5.50;43.10
35299;DHT22;21415;48.054;16.646;2023-03-01T00:57:23;6.10;43.40
35299;DHT22;21415;48.054;16.646;2023-03-01T00:59:56;5.00;42.90
35299;DHT22;21415;48.054;16.646;2023-03-01T01:02:22;5.30;43.30
35299;DHT22;21415;48.054;16.646;2023-03-01T01:04:48;5.50;43.40
35299;DHT22;21415;48.054;16.646;2023-03-01T01:07:14;5.60;43.50
35299;DHT22;21415;48.054;16.646;2023-03-01T01:09:40;6.10;43.70
35299;DHT22;21415;48.054;16.646;2023-03-01T01:12:07;5.70;43.70
35299;DHT22;21415;48.054;16.646;2023-03-01T01:14:33;5.50;43.60
35299;DHT22;21415;48.054;16.646;2023-03-01T01:16:59;5.50;43.60
35299;DHT22;21415;48.054;16.646;2023-03-01T01:19:25;5.50;43.60
35299;DHT22;21415;48.054;16.646;2023-03-01T01:21:52;5.90;43.80
35299;DHT22;21415;48.054;16.646;2023-03-01T01:24:21;6.50;44.10
35299;DHT22;21415;48.054;16.646;2023-03-01T01:26:47;5.80;43.80
35299;DHT22;21415;48.054;16.646;2023-03-01T01:29:13;5.80;43.80
35299;DHT22;21415;48.054;16.646;2023-03-01T01:31:42;6.50;44.30
35299;DHT22;21415;48.054;16.646;2023-03-01T01:34:17;5.80;43.80
35299;DHT22;21415;48.054;16.646;2023-03-01T01:36:51;5.80;44.00
35299;DHT22;21415;48.054;16.646;2023-03-01T01:39:20;5.50;43.80
35299;DHT22;21415;48.054;16.646;2023-03-01T01:41:46;6.10;44.00
35299;DHT22;21415;48.054;16.646;2023-03-01T01:44:16;6.50;44.40
35299;DHT22;21415;48.054;16.646;2023-03-01T01:46:46;6.00;43.90
35299;DHT22;21415;48.054;16.646;2023-03-01T01:50:04;6.20;44.10
35299;DHT22;21415;48.054;16.646;2023-03-01T01:52:10;6.20;44.20
35299;DHT22;21415;48.054;16.646;2023-03-01T01:54:54;6.40;44.10
35299;DHT22;21415;48.054;16.646;2023-03-01T01:57:33;6.10;44.10
35299;DHT22;21415;48.054;16.646;2023-03-01T02:00:06;6.20;44.00
35299;DHT22;21415;48.054;16.646;2023-03-01T02:02:42;6.40;43.90
35299;DHT22;21415;48.054;16.646;2023-03-01T02:08:04;6.30;43.80
35299;DHT22;21415;48.054;16.646;2023-03-01T02:10:32;6.40;43.80
35299;DHT22;21415;48.054;16.646;2023-03-01T02:13:00;7.20;44.20
35299;DHT22;21415;48.054;16.646;2023-03-01T02:15:26;6.60;43.90
35299;DHT22;21415;48.054;16.646;2023-03-01T02:17:56;6.50;43.90
35299;DHT22;21415;48.054;16.646;2023-03-01T02:20:26;7.30;44.40
35299;DHT22;21415;48.054;16.646;2023-03-01T02:22:57;6.50;44.30
35299;DHT22;21415;48.054;16.646;2023-03-01T02:28:32;6.60;44.10
35299;DHT22;21415;48.054;16.646;2023-03-01T02:30:58;6.60;43.90
35299;DHT22;21415;48.054;16.646;2023-03-01T02:33:43;6.80;43.90
35299;DHT22;21415;48.054;16.646;2023-03-01T02:36:14;7.50;44.30
35299;DHT22;21415;48.054;16.646;2023-03-01T02:38:44;7.30;44.30
35299;DHT22;21415;48.054;16.646;2023-03-01T02:41:17;6.70;43.80
35299;DHT22;21415;48.054;16.646;2023-03-01T02:43:45;7.20;44.20
35299;DHT22;21415;48.054;16.646;2023-03-01T02:46:19;6.90;43.90
35299;DHT22;21415;48.054;16.646;2023-03-01T02:48:47;7.30;44.30
35299;DHT22;21415;48.054;16.646;2023-03-01T02:54:42;6.80;44.30
35299;DHT22;21415;48.054;16.646;2023-03-01T02:57:10;6.80;44.10
35299;DHT22;21415;48.054;16.646;2023-03-01T02:59:37;7.10;43.80
35299;DHT22;21415;48.054;16.646;2023-03-01T03:02:26;6.90;43.70
35299;DHT22;21415;48.054;16.646;2023-03-01T03:05:18;7.60;44.50
35299;DHT22;21415;48.054;16.646;2023-03-01T03:07:46;7.10;43.90
35299;DHT22;21415;48.054;16.646;2023-03-01T03:10:19;7.80;44.10
35299;DHT22;21415;48.054;16.646;2023-03-01T03:12:51;6.90;43.80
35299;DHT22;21415;48.054;16.646;2023-03-01T03:15:24;7.60;44.20
35299;DHT22;21415;48.054;16.646;2023-03-01T03:17:51;6.80;43.60
35299;DHT22;21415;48.054;16.646;2023-03-01T03:20:20;7.10;43.80
35299;DHT22;21415;48.054;16.646;2023-03-01T03:22:48;6.90;43.80
35299;DHT22;21415;48.054;16.646;2023-03-01T03:25:14;6.90;43.80
35299;DHT22;21415;48.054;16.646;2023-03-01T03:27:42;7.00;43.80
35299;DHT22;21415;48.054;16.646;2023-03-01T03:30:15;7.20;43.90
35299;DHT22;21415;48.054;16.646;2023-03-01T03:32:43;7.20;44.10
35299;DHT22;21415;48.054;16.646;2023-03-01T03:35:30;7.80;44.30
35299;DHT22;21415;48.054;16.646;2023-03-01T03:38:01;7.10;44.00
35299;DHT22;21415;48.054;16.646;2023-03-01T03:40:32;7.10;43.80
35299;DHT22;21415;48.054;16.646;2023-03-01T03:43:06;7.10;43.80
35299;DHT22;21415;48.054;16.646;2023-03-01T03:45:32;6.70;43.50
35299;DHT22;21415;48.054;16.646;2023-03-01T03:47:59;7.30;43.90
35299;DHT22;21415;48.054;16.646;2023-03-01T03:50:25;7.10;44.10
35299;DHT22;21415;48.054;16.646;2023-03-01T03:52:51;7.10;43.70
35299;DHT22;21415;48.054;16.646;2023-03-01T03:55:18;7.60;43.90
35299;DHT22;21415;48.054;16.646;2023-03-01T03:57:46;7.10;43.60
35299;DHT22;21415;48.054;16.646;2023-03-01T04:00:19;7.50;43.90
35299;DHT22;21415;48.054;16.646;2023-03-01T04:02:46;7.00;43.70
35299;DHT22;21415;48.054;16.646;2023-03-01T04:05:15;7.00;43.70
35299;DHT22;21415;48.054;16.646;2023-03-01T04:07:42;7.30;44.00
35299;DHT22;21415;48.054;16.646;2023-03-01T04:10:15;7.00;43.80
35299;DHT22;21415;48.054;16.646;2023-03-01T04:12:41;7.10;44.10
35299;DHT22;21415;48.054;16.646;2023-03-01T04:15:09;7.10;44.00
35299;DHT22;21415;48.054;16.646;2023-03-01T04:17:42;7.00;44.00
35299;DHT22;21415;48.054;16.646;2023-03-01T04:20:12;7.10;44.00
35299;DHT22;21415;48.054;16.646;2023-03-01T04:22:39;7.10;44.10
35299;DHT22;21415;48.054;16.646;2023-03-01T04:25:06;7.20;44.00
35299;DHT22;21415;48.054;16.646;2023-03-01T04:27:33;7.20;44.00
35299;DHT22;21415;48.054;16.646;2023-03-01T04:29:59;7.20;44.30
35299;DHT22;21415;48.054;16.646;2023-03-01T04:32:24;7.90;44.40
35299;DHT22;21415;48.054;16.646;2023-03-01T04:34:50;7.60;44.30
35299;DHT22;21415;48.054;16.646;2023-03-01T04:37:16;7.70;44.20
35299;DHT22;21415;48.054;16.646;2023-03-01T04:39:46;7.40;43.90
35299;DHT22;21415;48.054;16.646;2023-03-01T04:42:16;7.30;43.70
35299;DHT22;21415;48.054;16.646;2023-03-01T04:44:43;7.70;43.90
35299;DHT22;21415;48.054;16.646;2023-03-01T04:47:09;7.70;44.00
35299;DHT22;21415;48.054;16.646;2023-03-01T04:49:35;7.40;43.80
35299;DHT22;21415;48.054;16.646;2023-03-01T04:52:01;7.40;44.00
35299;DHT22;21415;48.054;16.646;2023-03-01T04:54:33;7.60;43.70
35299;DHT22;21415;48.054;16.646;2023-03-01T04:57:01;7.30;43.50
35299;DHT22;21415;48.054;16.646;2023-03-01T04:59:27;7.50;43.60
35299;DHT22;21415;48.054;16.646;2023-03-01T05:01:54;6.90;43.20
35299;DHT22;21415;48.054;16.646;2023-03-01T05:04:22;7.80;43.70
35299;DHT22;21415;48.054;16.646;2023-03-01T05:06:48;8.00;43.80
35299;DHT22;21415;48.054;16.646;2023-03-01T05:09:16;7.40;43.50
35299;DHT22;21415;48.054;16.646;2023-03-01T05:11:43;7.50;43.50
35299;DHT22;21415;48.054;16.646;2023-03-01T05:14:11;7.50;43.50
35299;DHT22;21415;48.054;16.646;2023-03-01T05:16:38;7.40;43.40
35299;DHT22;21415;48.054;16.646;2023-03-01T05:19:04;7.40;43.60
35299;DHT22;21415;48.054;16.646;2023-03-01T05:21:38;8.00;43.90
35299;DHT22;21415;48.054;16.646;2023-03-01T05:24:28;8.10;43.90
35299;DHT22;21415;48.054;16.646;2023-03-01T05:26:54;7.60;43.70
35299;DHT22;21415;48.054;16.646;2023-03-01T05:29:21;7.70;43.80
35299;DHT22;21415;48.054;16.646;2023-03-01T05:31:54;7.60;43.70
35299;DHT22;21415;48.054;16.646;2023-03-01T05:34:29;7.50;43.70
35299;DHT22;21415;48.054;16.646;2023-03-01T05:36:56;8.50;44.30
35299;DHT22;21415;48.054;16.646;2023-03-01T05:39:23;7.60;43.60
35299;DHT22;21415;48.054;16.646;2023-03-01T05:41:57;7.80;43.70
35299;DHT22;21415;48.054;16.646;2023-03-01T05:44:23;7.60;43.70
35299;DHT22;21415;48.054;16.646;2023-03-01T05:46:49;7.60;43.60
35299;DHT22;21415;48.054;16.646;2023-03-01T05:49:15;7.60;43.50
35299;DHT22;21415;48.054;16.646;2023-03-01T05:51:42;7.60;43.60
35299;DHT22;21415;48.054;16.646;2023-03-01T05:54:09;7.60;43.40
35299;DHT22;21415;48.054;16.646;2023-03-01T05:56:36;7.70;43.50
35299;DHT22;21415;48.054;16.646;2023-03-01T05:59:03;7.90;43.60
35299;DHT22;21415;48.054;16.646;2023-03-01T06:01:31;7.70;43.50
35299;DHT22;21415;48.054;16.646;2023-03-01T06:03:57;7.70;43.50
35299;DHT22;21415;48.054;16.646;2023-03-01T06:06:23;7.70;43.50
35299;DHT22;21415;48.054;16.646;2023-03-01T06:08:50;7.70;43.40
35299;DHT22;21415;48.054;16.646;2023-03-01T06:11:15;7.70;43.40
35299;DHT22;21415;48.054;16.646;2023-03-01T06:13:44;7.80;43.50
35299;DHT22;21415;48.054;16.646;2023-03-01T06:16:11;8.10;43.60
35299;DHT22;21415;48.054;16.646;2023-03-01T06:18:37;7.80;43.70
35299;DHT22;21415;48.054;16.646;2023-03-01T06:21:04;7.70;43.50
35299;DHT22;21415;48.054;16.646;2023-03-01T06:23:30;7.70;43.50
35299;DHT22;21415;48.054;16.646;2023-03-01T06:25:56;7.70;43.60
35299;DHT22;21415;48.054;16.646;2023-03-01T06:28:22;8.00;43.80
35299;DHT22;21415;48.054;16.646;2023-03-01T06:30:49;8.20;43.90
35299;DHT22;21415;48.054;16.646;2023-03-01T06:33:15;8.20;44.00
35299;DHT22;21415;48.054;16.646;2023-03-01T06:35:40;7.70;43.70
35299;DHT22;21415;48.054;16.646;2023-03-01T06:38:06;8.30;44.10
35299;DHT22;21415;48.054;16.646;2023-03-01T06:40:32;7.80;43.90
35299;DHT22;21415;48.054;16.646;2023-03-01T06:43:01;7.90;43.80
35299;DHT22;21415;48.054;16.646;2023-03-01T06:45:26;7.80;43.80
35299;DHT22;21415;48.054;16.646;2023-03-01T06:47:52;7.80;43.90
35299;DHT22;21415;48.054;16.646;2023-03-01T06:50:18;8.00;43.90
35299;DHT22;21415;48.054;16.646;2023-03-01T06:52:45;7.90;43.90
35299;DHT22;21415;48.054;16.646;2023-03-01T06:55:11;8.00;43.90
35299;DHT22;21415;48.054;16.646;2023-03-01T06:57:37;8.00;44.00
35299;DHT22;21415;48.054;16.646;2023-03-01T07:00:04;8.00;43.70
35299;DHT22;21415;48.054;16.646;2023-03-01T07:02:31;8.00;43.60
35299;DHT22;21415;48.054;16.646;2023-03-01T07:04:57;8.20;43.70
35299;DHT22;21415;48.054;16.646;2023-03-01T07:07:22;8.00;43.60
35299;DHT22;21415;48.054;16.646;2023-03-01T07:09:49;8.00;43.60
35299;DHT22;21415;48.054;16.646;2023-03-01T07:12:15;8.10;43.70
35299;DHT22;21415;48.054;16.646;2023-03-01T07:14:41;8.00;43.70
35299;DHT22;21415;48.054;16.646;2023-03-01T07:17:07;8.40;44.10
35299;DHT22;21415;48.054;16.646;2023-03-01T07:19:32;8.20;44.00
35299;DHT22;21415;48.054;16.646;2023-03-01T07:21:58;8.10;43.70
35299;DHT22;21415;48.054;16.646;2023-03-01T07:24:24;8.20;43.80
35299;DHT22;21415;48.054;16.646;2023-03-01T07:26:50;8.20;43.80
35299;DHT22;21415;48.054;16.646;2023-03-01T07:29:16;8.40;43.80
35299;DHT22;21415;48.054;16.646;2023-03-01T07:31:42;8.30;43.90
35299;DHT22;21415;48.054;16.646;2023-03-01T07:34:08;8.30;43.80
35299;DHT22;21415;48.054;16.646;2023-03-01T07:36:33;8.30;43.60
35299;DHT22;21415;48.054;16.646;2023-03-01T07:38:59;8.40;43.60
35299;DHT22;21415;48.054;16.646;2023-03-01T07:41:28;8.40;43.70
35299;DHT22;21415;48.054;16.646;2023-03-01T07:43:53;8.60;43.90
35299;DHT22;21415;48.054;16.646;2023-03-01T07:46:19;8.60;44.00
35299;DHT22;21415;48.054;16.646;2023-03-01T07:48:45;8.50;43.80
35299;DHT22;21415;48.054;16.646;2023-03-01T07:51:11;8.80;43.90
35299;DHT22;21415;48.054;16.646;2023-03-01T07:53:37;8.80;43.90
35299;DHT22;21415;48.054;16.646;2023-03-01T07:56:09;8.70;43.80
35299;DHT22;21415;48.054;16.646;2023-03-01T07:58:36;8.80;43.80
35299;DHT22;21415;48.054;16.646;2023-03-01T08:01:07;8.90;43.90
35299;DHT22;21415;48.054;16.646;2023-03-01T08:03:34;8.90;44.40
35299;DHT22;21415;48.054;16.646;2023-03-01T08:06:01;8.90;43.70
35299;DHT22;21415;48.054;16.646;2023-03-01T08:08:27;8.70;43.70
35299;DHT22;21415;48.054;16.646;2023-03-01T08:10:56;9.10;43.80
35299;DHT22;21415;48.054;16.646;2023-03-01T08:13:22;9.10;43.80
35299;DHT22;21415;48.054;16.646;2023-03-01T08:15:49;9.30;43.90
35299;DHT22;21415;48.054;16.646;2023-03-01T08:18:19;9.30;43.80
35299;DHT22;21415;48.054;16.646;2023-03-01T08:20:45;9.40;43.80
35299;DHT22;21415;48.054;16.646;2023-03-01T08:23:11;9.50;43.80
35299;DHT22;21415;48.054;16.646;2023-03-01T08:25:38;9.50;43.70
35299;DHT22;21415;48.054;16.646;2023-03-01T08:28:04;9.60;44.20
35299;DHT22;21415;48.054;16.646;2023-03-01T08:30:30;9.70;43.70
35299;DHT22;21415;48.054;16.646;2023-03-01T08:32:55;9.70;43.60
35299;DHT22;21415;48.054;16.646;2023-03-01T08:35:22;9.80;43.60
35299;DHT22;21415;48.054;16.646;2023-03-01T08:37:48;9.90;43.50
35299;DHT22;21415;48.054;16.646;2023-03-01T08:40:13;10.00;43.40
35299;DHT22;21415;48.054;16.646;2023-03-01T08:42:42;10.00;43.40
35299;DHT22;21415;48.054;16.646;2023-03-01T08:45:10;10.20;43.40
35299;DHT22;21415;48.054;16.646;2023-03-01T08:47:36;10.20;43.40
35299;DHT22;21415;48.054;16.646;2023-03-01T08:50:03;10.40;43.50
35299;DHT22;21415;48.054;16.646;2023-03-01T08:52:29;10.30;43.50
35299;DHT22;21415;48.054;16.646;2023-03-01T08:54:56;10.40;43.40
35299;DHT22;21415;48.054;16.646;2023-03-01T08:57:22;10.50;43.30
35299;DHT22;21415;48.054;16.646;2023-03-01T08:59:48;10.60;43.30
35299;DHT22;21415;48.054;16.646;2023-03-01T09:02:15;10.70;43.40
35299;DHT22;21415;48.054;16.646;2023-03-01T09:04:42;10.70;43.00
35299;DHT22;21415;48.054;16.646;2023-03-01T09:07:08;10.80;42.90
35299;DHT22;21415;48.054;16.646;2023-03-01T09:09:35;10.90;42.90
35299;DHT22;21415;48.054;16.646;2023-03-01T09:12:01;10.90;42.90
35299;DHT22;21415;48.054;16.646;2023-03-01T09:14:27;11.00;42.80
35299;DHT22;21415;48.054;16.646;2023-03-01T09:16:53;11.10;43.50
35299;DHT22;21415;48.054;16.646;2023-03-01T09:19:19;11.10;43.30
35299;DHT22;21415;48.054;16.646;2023-03-01T09:21:45;11.20;42.70
35299;DHT22;21415;48.054;16.646;2023-03-01T09:24:19;11.30;42.50
35299;DHT22;21415;48.054;16.646;2023-03-01T09:26:46;11.40;42.30
35299;DHT22;21415;48.054;16.646;2023-03-01T09:29:13;11.40;42.20
35299;DHT22;21415;48.054;16.646;2023-03-01T09:31:39;11.50;42.00
35299;DHT22;21415;48.054;16.646;2023-03-01T09:34:06;11.50;41.70
35299;DHT22;21415;48.054;16.646;2023-03-01T09:36:32;11.60;41.70
35299;DHT22;21415;48.054;16.646;2023-03-01T09:38:59;11.60;41.60
35299;DHT22;21415;48.054;16.646;2023-03-01T09:44:21;11.70;41.50
35299;DHT22;21415;48.054;16.646;2023-03-01T09:46:50;11.70;41.20
35299;DHT22;21415;48.054;16.646;2023-03-01T09:49:23;11.70;41.10
35299;DHT22;21415;48.054;16.646;2023-03-01T09:54:49;11.70;40.40
35299;DHT22;21415;48.054;16.646;2023-03-01T09:57:19;11.70;40.70
35299;DHT22;21415;48.054;16.646;2023-03-01T10:04:52;11.70;40.30
35299;DHT22;21415;48.054;16.646;2023-03-01T10:10:23;11.80;40.40
35299;DHT22;21415;48.054;16.646;2023-03-01T10:12:51;11.80;40.50
35299;DHT22;21415;48.054;16.646;2023-03-01T10:15:35;11.80;40.90
35299;DHT22;21415;48.054;16.646;2023-03-01T10:18:14;11.90;40.40
35299;DHT22;21415;48.054;16.646;2023-03-01T10:20:55;11.90;40.30
35299;DHT22;21415;48.054;16.646;2023-03-01T10:23:23;11.90;40.10
35299;DHT22;21415;48.054;16.646;2023-03-01T10:26:24;11.90;40.30
35299;DHT22;21415;48.054;16.646;2023-03-01T10:29:10;12.00;39.80
35299;DHT22;21415;48.054;16.646;2023-03-01T10:34:41;12.00;40.10
35299;DHT22;21415;48.054;16.646;2023-03-01T10:37:16;12.00;40.20
35299;DHT22;21415;48.054;16.646;2023-03-01T10:40:05;12.00;40.50
35299;DHT22;21415;48.054;16.646;2023-03-01T10:42:41;12.10;39.70
35299;DHT22;21415;48.054;16.646;2023-03-01T10:50:28;12.10;39.60
35299;DHT22;21415;48.054;16.646;2023-03-01T10:52:58;12.20;40.10
35299;DHT22;21415;48.054;16.646;2023-03-01T10:58:20;12.30;40.20
35299;DHT22;21415;48.054;16.646;2023-03-01T11:00:53;12.30;39.60
35299;DHT22;21415;48.054;16.646;2023-03-01T11:03:22;12.40;39.70
35299;DHT22;21415;48.054;16.646;2023-03-01T11:06:12;12.40;39.80
35299;DHT22;21415;48.054;16.646;2023-03-01T11:08:47;12.50;39.50
35299;DHT22;21415;48.054;16.646;2023-03-01T11:11:34;12.50;39.80
35299;DHT22;21415;48.054;16.646;2023-03-01T11:14:22;12.60;39.40
35299;DHT22;21415;48.054;16.646;2023-03-01T11:17:11;12.70;39.60
35299;DHT22;21415;48.054;16.646;2023-03-01T11:19:37;12.70;39.50
35299;DHT22;21415;48.054;16.646;2023-03-01T11:22:16;12.70;40.00
35299;DHT22;21415;48.054;16.646;2023-03-01T11:24:49;12.90;39.50
35299;DHT22;21415;48.054;16.646;2023-03-01T11:27:25;12.90;39.80
35299;DHT22;21415;48.054;16.646;2023-03-01T11:29:59;13.00;39.50
35299;DHT22;21415;48.054;16.646;2023-03-01T11:32:29;13.10;39.70
35299;DHT22;21415;48.054;16.646;2023-03-01T11:35:13;13.20;39.70
35299;DHT22;21415;48.054;16.646;2023-03-01T11:37:51;13.20;39.30
35299;DHT22;21415;48.054;16.646;2023-03-01T11:40:43;13.40;39.20
35299;DHT22;21415;48.054;16.646;2023-03-01T11:48:35;13.60;38.80
35299;DHT22;21415;48.054;16.646;2023-03-01T11:51:20;13.60;39.40
35299;DHT22;21415;48.054;16.646;2023-03-01T11:54:04;13.70;38.60
35299;DHT22;21415;48.054;16.646;2023-03-01T11:56:43;13.80;38.90
35299;DHT22;21415;48.054;16.646;2023-03-01T12:04:50;14.00;38.70
35299;DHT22;21415;48.054;16.646;2023-03-01T12:07:44;14.00;39.30
35299;DHT22;21415;48.054;16.646;2023-03-01T12:10:27;14.10;38.40
35299;DHT22;21415;48.054;16.646;2023-03-01T12:21:30;14.30;38.30
35299;DHT22;21415;48.054;16.646;2023-03-01T12:27:06;14.40;38.20
35299;DHT22;21415;48.054;16.646;2023-03-01T12:29:59;14.50;38.40
35299;DHT22;21415;48.054;16.646;2023-03-01T12:35:21;14.60;39.00
35299;DHT22;21415;48.054;16.646;2023-03-01T12:48:45;14.80;38.30
35299;DHT22;21415;48.054;16.646;2023-03-01T12:51:19;14.80;38.30
35299;DHT22;21415;48.054;16.646;2023-03-01T12:53:51;14.90;38.50
35299;DHT22;21415;48.054;16.646;2023-03-01T12:56:22;14.90;38.40
35299;DHT22;21415;48.054;16.646;2023-03-01T12:59:01;15.00;38.40
35299;DHT22;21415;48.054;16.646;2023-03-01T13:09:56;15.20;38.10
35299;DHT22;21415;48.054;16.646;2023-03-01T13:17:54;15.20;37.70
35299;DHT22;21415;48.054;16.646;2023-03-01T13:20:44;15.30;37.90
35299;DHT22;21415;48.054;16.646;2023-03-01T13:30:58;15.30;37.60
35299;DHT22;21415;48.054;16.646;2023-03-01T13:33:40;15.30;38.00
35299;DHT22;21415;48.054;16.646;2023-03-01T13:36:07;15.40;37.80
35299;DHT22;21415;48.054;16.646;2023-03-01T13:38:47;15.40;38.00
35299;DHT22;21415;48.054;16.646;2023-03-01T13:41:15;15.40;37.60
35299;DHT22;21415;48.054;16.646;2023-03-01T13:43:43;15.40;37.80
35299;DHT22;21415;48.054;16.646;2023-03-01T13:46:12;15.40;37.90
35299;DHT22;21415;48.054;16.646;2023-03-01T13:48:43;15.40;37.90
35299;DHT22;21415;48.054;16.646;2023-03-01T13:51:11;15.40;37.90
35299;DHT22;21415;48.054;16.646;2023-03-01T13:53:45;15.40;38.40
35299;DHT22;21415;48.054;16.646;2023-03-01T13:56:57;15.40;37.60
35299;DHT22;21415;48.054;16.646;2023-03-01T13:59:18;15.40;37.80
35299;DHT22;21415;48.054;16.646;2023-03-01T14:02:00;15.40;37.60
35299;DHT22;21415;48.054;16.646;2023-03-01T14:04:32;15.40;37.70
35299;DHT22;21415;48.054;16.646;2023-03-01T14:07:22;15.40;37.80
35299;DHT22;21415;48.054;16.646;2023-03-01T14:09:59;15.40;37.70
35299;DHT22;21415;48.054;16.646;2023-03-01T14:15:36;15.30;37.70
35299;DHT22;21415;48.054;16.646;2023-03-01T14:18:36;15.30;37.70
35299;DHT22;21415;48.054;16.646;2023-03-01T14:21:08;15.10;37.30
35299;DHT22;21415;48.054;16.646;2023-03-01T14:23:34;15.20;37.50
35299;DHT22;21415;48.054;16.646;2023-03-01T14:26:02;15.20;37.60
35299;DHT22;21415;48.054;16.646;2023-03-01T14:28:31;15.10;37.50
35299;DHT22;21415;48.054;16.646;2023-03-01T14:31:00;15.00;37.60
35299;DHT22;21415;48.054;16.646;2023-03-01T14:33:31;15.00;37.70
35299;DHT22;21415;48.054;16.646;2023-03-01T14:36:03;14.90;37.60
35299;DHT22;21415;48.054;16.646;2023-03-01T14:38:43;14.80;37.80
35299;DHT22;21415;48.054;16.646;2023-03-01T14:41:14;14.80;37.60
35299;DHT22;21415;48.054;16.646;2023-03-01T14:43:44;14.70;37.60
35299;DHT22;21415;48.054;16.646;2023-03-01T14:46:36;14.70;37.80
35299;DHT22;21415;48.054;16.646;2023-03-01T14:51:43;14.50;37.70
35299;DHT22;21415;48.054;16.646;2023-03-01T14:54:29;14.50;38.10
35299;DHT22;21415;48.054;16.646;2023-03-01T14:57:00;14.40;38.00
35299;DHT22;21415;48.054;16.646;2023-03-01T14:59:26;14.40;38.20
35299;DHT22;21415;48.054;16.646;2023-03-01T15:01:55;14.40;38.30
35299;DHT22;21415;48.054;16.646;2023-03-01T15:04:23;14.40;38.40
35299;DHT22;21415;48.054;16.646;2023-03-01T15:06:54;14.40;38.40
35299;DHT22;21415;48.054;16.646;2023-03-01T15:09:21;14.30;38.40
35299;DHT22;21415;48.054;16.646;2023-03-01T15:11:49;14.40;38.50
35299;DHT22;21415;48.054;16.646;2023-03-01T15:14:40;14.30;38.50
35299;DHT22;21415;48.054;16.646;2023-03-01T15:17:30;14.30;38.40
35299;DHT22;21415;48.054;16.646;2023-03-01T15:19:56;14.30;38.40
35299;DHT22;21415;48.054;16.646;2023-03-01T15:22:25;14.30;38.50
35299;DHT22;21415;48.054;16.646;2023-03-01T15:24:51;14.30;38.50
35299;DHT22;21415;48.054;16.646;2023-03-01T15:27:23;14.30;38.60
35299;DHT22;21415;48.054;16.646;2023-03-01T15:29:58;14.30;38.50
35299;DHT22;21415;48.054;16.646;2023-03-01T15:32:33;14.40;38.50
35299;DHT22;21415;48.054;16.646;2023-03-01T15:35:33;14.40;38.50
35299;DHT22;21415;48.054;16.646;2023-03-01T15:38:01;14.40;38.50
35299;DHT22;21415;48.054;16.646;2023-03-01T15:40:29;14.40;38.60
35299;DHT22;21415;48.054;16.646;2023-03-01T15:43:03;14.40;38.60
35299;DHT22;21415;48.054;16.646;2023-03-01T15:45:30;14.40;38.50
35299;DHT22;21415;48.054;16.646;2023-03-01T15:48:04;14.40;38.50
35299;DHT22;21415;48.054;16.646;2023-03-01T15:50:33;14.40;38.40
35299;DHT22;21415;48.054;16.646;2023-03-01T15:53:00;14.40;38.40
35299;DHT22;21415;48.054;16.646;2023-03-01T15:55:31;14.40;38.40
35299;DHT22;21415;48.054;16.646;2023-03-01T15:58:05;14.40;38.30
35299;DHT22;21415;48.054;16.646;2023-03-01T16:00:33;14.40;38.30
35299;DHT22;21415;48.054;16.646;2023-03-01T16:02:59;14.30;38.20
35299;DHT22;21415;48.054;16.646;2023-03-01T16:05:33;14.30;38.30
35299;DHT22;21415;48.054;16.646;2023-03-01T16:08:00;14.30;38.30
35299;DHT22;21415;48.054;16.646;2023-03-01T16:10:27;14.30;38.40
35299;DHT22;21415;48.054;16.646;2023-03-01T16:12:55;14.30;38.30
35299;DHT22;21415;48.054;16.646;2023-03-01T16:15:29;14.20;38.40
35299;DHT22;21415;48.054;16.646;2023-03-01T16:17:56;14.20;38.60
35299;DHT22;21415;48.054;16.646;2023-03-01T16:20:24;14.20;38.60
35299;DHT22;21415;48.054;16.646;2023-03-01T16:22:50;14.20;38.60
35299;DHT22;21415;48.054;16.646;2023-03-01T16:25:19;14.10;38.70
35299;DHT22;21415;48.054;16.646;2023-03-01T16:27:47;14.10;38.70
35299;DHT22;21415;48.054;16.646;2023-03-01T16:30:16;14.10;38.80
35299;DHT22;21415;48.054;16.646;2023-03-01T16:32:44;14.00;38.80
35299;DHT22;21415;48.054;16.646;2023-03-01T16:35:12;14.00;39.00
35299;DHT22;21415;48.054;16.646;2023-03-01T16:37:39;13.90;39.10
35299;DHT22;21415;48.054;16.646;2023-03-01T16:40:09;13.90;39.10
35299;DHT22;21415;48.054;16.646;2023-03-01T16:42:37;13.90;39.20
35299;DHT22;21415;48.054;16.646;2023-03-01T16:45:06;13.80;39.10
35299;DHT22;21415;48.054;16.646;2023-03-01T16:47:32;13.80;39.30
35299;DHT22;21415;48.054;16.646;2023-03-01T16:49:58;13.80;39.50
35299;DHT22;21415;48.054;16.646;2023-03-01T16:52:24;13.80;39.30
35299;DHT22;21415;48.054;16.646;2023-03-01T16:54:50;13.70;39.40
35299;DHT22;21415;48.054;16.646;2023-03-01T16:57:16;13.70;39.50
35299;DHT22;21415;48.054;16.646;2023-03-01T16:59:41;13.60;39.60
35299;DHT22;21415;48.054;16.646;2023-03-01T17:02:11;13.60;39.70
35299;DHT22;21415;48.054;16.646;2023-03-01T17:04:39;13.60;39.80
35299;DHT22;21415;48.054;16.646;2023-03-01T17:07:05;13.50;39.90
35299;DHT22;21415;48.054;16.646;2023-03-01T17:09:34;13.50;39.90
35299;DHT22;21415;48.054;16.646;2023-03-01T17:12:01;13.40;40.00
35299;DHT22;21415;48.054;16.646;2023-03-01T17:14:27;13.40;39.90
35299;DHT22;21415;48.054;16.646;2023-03-01T17:16:52;13.40;40.00
35299;DHT22;21415;48.054;16.646;2023-03-01T17:19:18;13.40;39.90
35299;DHT22;21415;48.054;16.646;2023-03-01T17:21:45;13.30;39.90